sensor_id;sensor_type;location;lat;lon;timestamp;noise_LAeq;noise_LA_min;noise_LA_max;noise_LA01;noise_LA95
74214;Laerm;62576;55.694;37.494;2023-04-12T00:02:23;56.87;47.55;64.35;;
74214;Laerm;62576;55.694;37.494;2023-04-12T00:04:54;56.84;46.69;68.64;;
74214;Laerm;62576;55.694;37.494;2023-04-12T00:07:25;56.11;46.29;69.21;;
74214;Laerm;62576;55.694;37.494;2023-04-12T00:09:56;57.37;47.33;66.95;;
74214;Laerm;62576;55.694;37.494;2023-04-12T00:12:26;55.57;45.01;65.72;;
74214;Laerm;62576;55.694;37.494;2023-04-12T00:14:56;59.90;47.94;70.11;;
74214;Laerm;62576;55.694;37.494;2023-04-12T00:17:26;54.28;45.38;61.20;;
74214;Laerm;62576;55.694;37.494;2023-04-12T00:19:57;54.17;45.72;63.17;;
74214;Laerm;62576;55.694;37.494;2023-04-12T00:22:27;58.98;48.23;67.09;;
74214;Laerm;62576;55.694;37.494;2023-04-12T00:24:58;56.42;47.01;66.63;;
74214;Laerm;62576;55.694;37.494;2023-04-12T00:27:28;56.33;43.70;67.49;;
74214;Laerm;62576;55.694;37.494;2023-04-12T00:29:58;56.93;44.17;68.21;;
74214;Laerm;62576;55.694;37.494;2023-04-12T00:32:28;56.12;44.52;66.92;;
74214;Laerm;62576;55.694;37.494;2023-04-12T00:34:59;52.72;43.17;66.37;;
74214;Laerm;62576;55.694;37.494;2023-04-12T00:37:29;57.00;44.59;65.99;;
74214;Laerm;62576;55.694;37.494;2023-04-12T00:40:00;57.58;45.44;68.67;;
74214;Laerm;62576;55.694;37.494;2023-04-12T00:42:30;60.27;54.28;66.31;;
74214;Laerm;62576;55.694;37.494;2023-04-12T00:45:00;59.34;52.80;65.65;;
74214;Laerm;62576;55.694;37.494;2023-04-12T00:47:30;56.63;54.93;62.29;;
74214;Laerm;62576;55.694;37.494;2023-04-12T00:50:01;60.57;55.49;68.36;;
74214;Laerm;62576;55.694;37.494;2023-04-12T00:52:31;67.01;58.86;74.60;;
74214;Laerm;62576;55.694;37.494;2023-04-12T00:55:06;60.72;56.82;65.68;;
74214;Laerm;62576;55.694;37.494;2023-04-12T00:57:38;59.61;55.38;64.93;;
74214;Laerm;62576;55.694;37.494;2023-04-12T01:00:09;58.83;55.37;65.42;;
74214;Laerm;62576;55.694;37.494;2023-04-12T01:02:42;57.63;54.97;63.66;;
74214;Laerm;62576;55.694;37.494;2023-04-12T01:05:14;58.83;55.70;65.97;;
74214;Laerm;62576;55.694;37.494;2023-04-12T01:07:57;58.12;55.57;65.87;;
74214;Laerm;62576;55.694;37.494;2023-04-12T01:10:42;59.14;55.37;66.19;;
74214;Laerm;62576;55.694;37.494;2023-04-12T01:13:23;59.46;55.57;67.88;;
74214;Laerm;62576;55.694;37.494;2023-04-12T01:15:58;59.52;55.76;66.04;;
74214;Laerm;62576;55.694;37.494;2023-04-12T01:18:35;57.77;55.55;62.94;;
74214;Laerm;62576;55.694;37.494;2023-04-12T01:21:12;58.78;55.92;63.94;;
74214;Laerm;62576;55.694;37.494;2023-04-12T01:23:52;58.40;55.10;68.40;;
74214;Laerm;62576;55.694;37.494;2023-04-12T01:26:37;59.05;55.28;67.13;;
74214;Laerm;62576;55.694;37.494;2023-04-12T01:29:14;58.56;55.28;65.02;;
74214;Laerm;62576;55.694;37.494;2023-04-12T01:31:49;62.77;55.34;79.16;;
74214;Laerm;62576;55.694;37.494;2023-04-12T01:34:22;62.95;55.75;84.89;;
74214;Laerm;62576;55.694;37.494;2023-04-12T01:36:53;59.05;56.08;65.02;;
74214;Laerm;62576;55.694;37.494;2023-04-12T01:39:24;59.79;55.94;64.05;;
74214;Laerm;62576;55.694;37.494;2023-04-12T01:41:55;58.86;47.50;66.86;;
74214;Laerm;62576;55.694;37.494;2023-04-12T01:44:26;55.15;44.15;65.60;;
74214;Laerm;62576;55.694;37.494;2023-04-12T01:46:56;48.95;43.26;55.19;;
74214;Laerm;62576;55.694;37.494;2023-04-12T01:49:33;55.50;44.15;77.76;;
74214;Laerm;62576;55.694;37.494;2023-04-12T01:52:08;59.34;49.61;72.76;;
74214;Laerm;62576;55.694;37.494;2023-04-12T01:54:41;59.71;52.65;67.31;;
74214;Laerm;62576;55.694;37.494;2023-04-12T01:57:14;63.74;49.04;72.10;;
74214;Laerm;62576;55.694;37.494;2023-04-12T01:59:47;57.52;50.37;68.05;;
74214;Laerm;62576;55.694;37.494;2023-04-12T02:02:19;57.24;49.50;64.70;;
74214;Laerm;62576;55.694;37.494;2023-04-12T02:04:52;58.63;49.32;64.37;;
74214;Laerm;62576;55.694;37.494;2023-04-12T02:07:23;58.67;55.28;64.71;;
74214;Laerm;62576;55.694;37.494;2023-04-12T02:09:54;57.77;45.73;64.29;;
74214;Laerm;62576;55.694;37.494;2023-04-12T02:12:23;55.72;45.83;68.38;;
74214;Laerm;62576;55.694;37.494;2023-04-12T02:14:55;60.98;48.22;68.21;;
74214;Laerm;62576;55.694;37.494;2023-04-12T02:17:25;58.53;46.82;67.69;;
74214;Laerm;62576;55.694;37.494;2023-04-12T02:19:56;56.37;46.07;66.32;;
74214;Laerm;62576;55.694;37.494;2023-04-12T02:22:27;56.20;45.24;64.60;;
74214;Laerm;62576;55.694;37.494;2023-04-12T02:24:57;59.60;51.29;68.71;;
74214;Laerm;62576;55.694;37.494;2023-04-12T02:27:27;60.02;55.09;67.34;;
74214;Laerm;62576;55.694;37.494;2023-04-12T02:29:58;60.60;55.82;67.25;;
74214;Laerm;62576;55.694;37.494;2023-04-12T02:32:28;59.70;55.56;68.91;;
74214;Laerm;62576;55.694;37.494;2023-04-12T02:35:00;62.22;56.49;68.94;;
74214;Laerm;62576;55.694;37.494;2023-04-12T02:37:30;59.90;56.36;67.24;;
74214;Laerm;62576;55.694;37.494;2023-04-12T02:40:00;60.54;55.18;66.70;;
74214;Laerm;62576;55.694;37.494;2023-04-12T02:42:32;61.20;54.02;69.71;;
74214;Laerm;62576;55.694;37.494;2023-04-12T02:45:04;61.10;55.99;68.60;;
74214;Laerm;62576;55.694;37.494;2023-04-12T02:47:34;60.62;55.64;69.04;;
74214;Laerm;62576;55.694;37.494;2023-04-12T02:50:06;61.77;55.80;69.13;;
74214;Laerm;62576;55.694;37.494;2023-04-12T02:52:33;60.94;55.34;67.94;;
74214;Laerm;62576;55.694;37.494;2023-04-12T02:55:04;60.90;55.60;67.56;;
74214;Laerm;62576;55.694;37.494;2023-04-12T02:57:34;60.17;55.69;68.05;;
74214;Laerm;62576;55.694;37.494;2023-04-12T03:00:08;61.21;57.01;67.39;;
74214;Laerm;62576;55.694;37.494;2023-04-12T03:02:40;61.55;56.56;68.57;;
74214;Laerm;62576;55.694;37.494;2023-04-12T03:05:11;59.74;55.65;69.19;;
74214;Laerm;62576;55.694;37.494;2023-04-12T03:07:42;61.56;52.33;69.10;;
74214;Laerm;62576;55.694;37.494;2023-04-12T03:10:11;63.03;56.57;71.85;;
74214;Laerm;62576;55.694;37.494;2023-04-12T03:12:42;62.21;55.26;68.97;;
74214;Laerm;62576;55.694;37.494;2023-04-12T03:15:13;63.43;54.26;71.30;;
74214;Laerm;62576;55.694;37.494;2023-04-12T03:17:43;62.01;54.48;69.09;;
74214;Laerm;62576;55.694;37.494;2023-04-12T03:20:13;62.08;55.51;70.48;;
74214;Laerm;62576;55.694;37.494;2023-04-12T03:22:45;63.49;55.76;71.06;;
74214;Laerm;62576;55.694;37.494;2023-04-12T03:25:16;64.49;56.74;70.91;;
74214;Laerm;62576;55.694;37.494;2023-04-12T03:27:46;62.06;56.45;67.82;;
74214;Laerm;62576;55.694;37.494;2023-04-12T03:30:22;63.96;56.57;71.23;;
74214;Laerm;62576;55.694;37.494;2023-04-12T03:32:52;64.67;58.09;71.96;;
74214;Laerm;62576;55.694;37.494;2023-04-12T03:35:22;63.63;56.35;71.12;;
74214;Laerm;62576;55.694;37.494;2023-04-12T03:37:52;63.88;56.17;69.75;;
74214;Laerm;62576;55.694;37.494;2023-04-12T03:40:22;68.50;58.06;84.01;;
74214;Laerm;62576;55.694;37.494;2023-04-12T03:42:53;64.77;56.58;70.81;;
74214;Laerm;62576;55.694;37.494;2023-04-12T03:45:25;63.41;56.76;69.92;;
74214;Laerm;62576;55.694;37.494;2023-04-12T03:47:55;66.27;58.75;71.72;;
74214;Laerm;62576;55.694;37.494;2023-04-12T03:50:25;65.43;56.67;71.32;;
74214;Laerm;62576;55.694;37.494;2023-04-12T03:52:56;65.93;58.46;75.43;;
74214;Laerm;62576;55.694;37.494;2023-04-12T03:55:26;65.11;59.73;71.38;;
74214;Laerm;62576;55.694;37.494;2023-04-12T03:57:57;64.23;56.13;70.68;;
74214;Laerm;62576;55.694;37.494;2023-04-12T04:00:29;65.49;56.29;70.79;;
74214;Laerm;62576;55.694;37.494;2023-04-12T04:03:00;64.82;57.49;69.72;;
74214;Laerm;62576;55.694;37.494;2023-04-12T04:05:31;65.09;58.60;71.13;;
74214;Laerm;62576;55.694;37.494;2023-04-12T04:08:02;65.94;58.09;74.31;;
74214;Laerm;62576;55.694;37.494;2023-04-12T04:10:34;65.69;56.80;71.73;;
74214;Laerm;62576;55.694;37.494;2023-04-12T04:13:04;66.03;59.99;70.88;;
74214;Laerm;62576;55.694;37.494;2023-04-12T04:15:35;64.90;57.33;71.42;;
74214;Laerm;62576;55.694;37.494;2023-04-12T04:18:05;65.32;57.87;71.47;;
74214;Laerm;62576;55.694;37.494;2023-04-12T04:20:35;65.45;56.92;69.73;;
74214;Laerm;62576;55.694;37.494;2023-04-12T04:23:06;67.01;58.92;75.47;;
74214;Laerm;62576;55.694;37.494;2023-04-12T04:25:37;66.49;57.25;71.25;;
74214;Laerm;62576;55.694;37.494;2023-04-12T04:28:07;66.97;57.99;72.03;;
74214;Laerm;62576;55.694;37.494;2023-04-12T04:30:39;66.02;59.72;70.27;;
74214;Laerm;62576;55.694;37.494;2023-04-12T04:33:10;67.09;58.13;75.80;;
74214;Laerm;62576;55.694;37.494;2023-04-12T04:35:39;66.41;59.05;71.72;;
74214;Laerm;62576;55.694;37.494;2023-04-12T04:38:09;67.59;60.17;74.45;;
74214;Laerm;62576;55.694;37.494;2023-04-12T04:40:39;67.10;59.83;73.56;;
74214;Laerm;62576;55.694;37.494;2023-04-12T04:43:09;67.35;60.45;73.34;;
74214;Laerm;62576;55.694;37.494;2023-04-12T04:45:43;67.25;60.08;75.80;;
74214;Laerm;62576;55.694;37.494;2023-04-12T04:48:13;68.71;59.76;83.75;;
74214;Laerm;62576;55.694;37.494;2023-04-12T04:50:43;66.56;58.01;72.81;;
74214;Laerm;62576;55.694;37.494;2023-04-12T04:53:17;68.00;60.80;72.45;;
74214;Laerm;62576;55.694;37.494;2023-04-12T04:55:48;67.87;60.06;83.35;;
74214;Laerm;62576;55.694;37.494;2023-04-12T04:58:18;67.11;59.77;71.49;;
74214;Laerm;62576;55.694;37.494;2023-04-12T05:00:49;66.22;58.80;71.73;;
74214;Laerm;62576;55.694;37.494;2023-04-12T05:03:23;66.18;58.01;71.19;;
74214;Laerm;62576;55.694;37.494;2023-04-12T05:05:55;66.19;56.40;70.73;;
74214;Laerm;62576;55.694;37.494;2023-04-12T05:08:25;66.58;60.65;73.17;;
74214;Laerm;62576;55.694;37.494;2023-04-12T05:10:56;66.91;58.66;74.25;;
74214;Laerm;62576;55.694;37.494;2023-04-12T05:13:26;67.82;60.26;73.18;;
74214;Laerm;62576;55.694;37.494;2023-04-12T05:15:58;68.47;62.91;79.82;;
74214;Laerm;62576;55.694;37.494;2023-04-12T05:18:28;66.69;60.13;70.67;;
74214;Laerm;62576;55.694;37.494;2023-04-12T05:21:01;67.06;60.17;72.66;;
74214;Laerm;62576;55.694;37.494;2023-04-12T05:23:35;67.87;60.26;77.62;;
74214;Laerm;62576;55.694;37.494;2023-04-12T05:26:05;66.79;59.08;70.42;;
74214;Laerm;62576;55.694;37.494;2023-04-12T05:28:36;66.84;60.17;70.58;;
74214;Laerm;62576;55.694;37.494;2023-04-12T05:31:08;67.49;60.82;78.28;;
74214;Laerm;62576;55.694;37.494;2023-04-12T05:33:38;67.10;61.31;73.07;;
74214;Laerm;62576;55.694;37.494;2023-04-12T05:36:09;67.17;60.26;72.19;;
74214;Laerm;62576;55.694;37.494;2023-04-12T05:38:39;66.37;59.28;71.57;;
74214;Laerm;62576;55.694;37.494;2023-04-12T05:41:11;67.78;61.55;78.16;;
74214;Laerm;62576;55.694;37.494;2023-04-12T05:43:41;67.68;61.22;75.87;;
74214;Laerm;62576;55.694;37.494;2023-04-12T05:46:12;67.37;60.40;75.94;;
74214;Laerm;62576;55.694;37.494;2023-04-12T05:48:42;66.15;60.39;70.76;;
74214;Laerm;62576;55.694;37.494;2023-04-12T05:51:12;66.45;60.24;70.89;;
74214;Laerm;62576;55.694;37.494;2023-04-12T05:53:42;68.16;61.18;81.03;;
74214;Laerm;62576;55.694;37.494;2023-04-12T05:56:12;67.41;61.13;71.76;;
74214;Laerm;62576;55.694;37.494;2023-04-12T05:58:42;67.13;59.80;71.62;;
74214;Laerm;62576;55.694;37.494;2023-04-12T06:01:14;66.54;59.38;69.98;;
74214;Laerm;62576;55.694;37.494;2023-04-12T06:03:47;66.26;60.54;69.96;;
74214;Laerm;62576;55.694;37.494;2023-04-12T06:06:17;66.81;60.84;73.71;;
74214;Laerm;62576;55.694;37.494;2023-04-12T06:08:48;66.53;59.63;70.29;;
74214;Laerm;62576;55.694;37.494;2023-04-12T06:11:19;67.17;62.06;71.69;;
74214;Laerm;62576;55.694;37.494;2023-04-12T06:13:49;67.58;63.01;71.83;;
74214;Laerm;62576;55.694;37.494;2023-04-12T06:16:21;68.37;63.92;73.25;;
74214;Laerm;62576;55.694;37.494;2023-04-12T06:18:51;68.68;61.67;76.82;;
74214;Laerm;62576;55.694;37.494;2023-04-12T06:21:22;66.80;61.18;73.99;;
74214;Laerm;62576;55.694;37.494;2023-04-12T06:23:52;67.60;63.47;73.11;;
74214;Laerm;62576;55.694;37.494;2023-04-12T06:26:22;66.78;61.58;72.00;;
74214;Laerm;62576;55.694;37.494;2023-04-12T06:28:51;67.32;60.18;73.21;;
74214;Laerm;62576;55.694;37.494;2023-04-12T06:31:23;69.42;66.19;77.21;;
74214;Laerm;62576;55.694;37.494;2023-04-12T06:33:53;66.66;61.66;71.10;;
74214;Laerm;62576;55.694;37.494;2023-04-12T06:36:23;65.95;60.83;72.67;;
74214;Laerm;62576;55.694;37.494;2023-04-12T06:38:53;66.92;60.28;72.98;;
74214;Laerm;62576;55.694;37.494;2023-04-12T06:41:24;67.31;61.49;72.92;;
74214;Laerm;62576;55.694;37.494;2023-04-12T06:43:54;71.56;62.92;84.79;;
74214;Laerm;62576;55.694;37.494;2023-04-12T06:46:29;69.55;64.85;73.94;;
74214;Laerm;62576;55.694;37.494;2023-04-12T06:48:59;68.17;64.10;75.63;;
74214;Laerm;62576;55.694;37.494;2023-04-12T06:51:29;66.15;61.69;75.58;;
74214;Laerm;62576;55.694;37.494;2023-04-12T06:54:00;68.62;60.45;78.67;;
74214;Laerm;62576;55.694;37.494;2023-04-12T06:56:30;67.38;62.32;70.58;;
74214;Laerm;62576;55.694;37.494;2023-04-12T06:59:00;68.75;64.62;79.01;;
74214;Laerm;62576;55.694;37.494;2023-04-12T07:01:32;69.74;65.69;75.72;;
74214;Laerm;62576;55.694;37.494;2023-04-12T07:04:02;69.97;65.03;76.81;;
74214;Laerm;62576;55.694;37.494;2023-04-12T07:06:32;69.59;62.90;76.84;;
74214;Laerm;62576;55.694;37.494;2023-04-12T07:09:05;66.78;61.91;72.96;;
74214;Laerm;62576;55.694;37.494;2023-04-12T07:11:32;68.08;64.12;74.73;;
74214;Laerm;62576;55.694;37.494;2023-04-12T07:14:04;67.45;62.18;72.06;;
74214;Laerm;62576;55.694;37.494;2023-04-12T07:16:35;68.20;63.75;77.37;;
74214;Laerm;62576;55.694;37.494;2023-04-12T07:19:05;67.98;62.94;73.82;;
74214;Laerm;62576;55.694;37.494;2023-04-12T07:21:35;68.55;62.44;73.99;;
74214;Laerm;62576;55.694;37.494;2023-04-12T07:24:06;68.91;63.93;73.83;;
74214;Laerm;62576;55.694;37.494;2023-04-12T07:26:36;69.10;64.65;72.67;;
74214;Laerm;62576;55.694;37.494;2023-04-12T07:29:06;68.85;63.93;73.38;;
74214;Laerm;62576;55.694;37.494;2023-04-12T07:31:37;69.13;64.58;72.88;;
74214;Laerm;62576;55.694;37.494;2023-04-12T07:34:07;68.97;64.94;73.64;;
74214;Laerm;62576;55.694;37.494;2023-04-12T07:36:38;69.23;64.47;74.43;;
74214;Laerm;62576;55.694;37.494;2023-04-12T07:39:08;69.22;62.94;76.93;;
74214;Laerm;62576;55.694;37.494;2023-04-12T07:41:41;69.37;61.27;73.59;;
74214;Laerm;62576;55.694;37.494;2023-04-12T07:44:13;69.91;64.40;79.17;;
74214;Laerm;62576;55.694;37.494;2023-04-12T07:46:45;67.70;62.33;71.84;;
74214;Laerm;62576;55.694;37.494;2023-04-12T07:49:15;67.76;62.25;79.20;;
74214;Laerm;62576;55.694;37.494;2023-04-12T07:51:42;68.30;63.21;73.81;;
74214;Laerm;62576;55.694;37.494;2023-04-12T07:54:12;67.32;61.54;72.47;;
74214;Laerm;62576;55.694;37.494;2023-04-12T07:56:56;67.60;62.77;72.09;;
74214;Laerm;62576;55.694;37.494;2023-04-12T07:59:26;68.24;63.30;75.14;;
74214;Laerm;62576;55.694;37.494;2023-04-12T08:01:58;68.11;62.95;77.94;;
74214;Laerm;62576;55.694;37.494;2023-04-12T08:04:28;67.85;63.56;72.29;;
74214;Laerm;62576;55.694;37.494;2023-04-12T08:06:58;68.19;64.33;73.48;;
74214;Laerm;62576;55.694;37.494;2023-04-12T08:09:28;68.59;63.34;72.51;;
74214;Laerm;62576;55.694;37.494;2023-04-12T08:11:58;68.03;61.83;72.66;;
74214;Laerm;62576;55.694;37.494;2023-04-12T08:14:37;68.44;61.32;79.97;;
74214;Laerm;62576;55.694;37.494;2023-04-12T08:17:09;68.82;61.02;74.63;;
74214;Laerm;62576;55.694;37.494;2023-04-12T08:19:39;68.06;61.41;73.98;;
74214;Laerm;62576;55.694;37.494;2023-04-12T08:22:09;66.99;58.70;77.67;;
74214;Laerm;62576;55.694;37.494;2023-04-12T08:24:41;69.71;64.54;77.58;;
74214;Laerm;62576;55.694;37.494;2023-04-12T08:27:12;70.61;63.13;77.50;;
74214;Laerm;62576;55.694;37.494;2023-04-12T08:29:42;71.16;65.10;77.32;;
74214;Laerm;62576;55.694;37.494;2023-04-12T08:32:14;69.36;63.55;75.12;;
74214;Laerm;62576;55.694;37.494;2023-04-12T08:34:44;68.73;61.42;73.47;;
74214;Laerm;62576;55.694;37.494;2023-04-12T08:37:14;70.37;66.42;77.18;;
74214;Laerm;62576;55.694;37.494;2023-04-12T08:39:44;69.39;65.65;74.03;;
74214;Laerm;62576;55.694;37.494;2023-04-12T08:42:14;69.77;64.23;76.78;;
74214;Laerm;62576;55.694;37.494;2023-04-12T08:44:45;68.44;62.36;72.32;;
74214;Laerm;62576;55.694;37.494;2023-04-12T08:47:16;68.91;61.68;75.63;;
74214;Laerm;62576;55.694;37.494;2023-04-12T08:49:46;69.18;61.72;76.23;;
74214;Laerm;62576;55.694;37.494;2023-04-12T08:52:13;67.88;61.20;74.44;;
74214;Laerm;62576;55.694;37.494;2023-04-12T08:54:44;68.74;61.92;75.41;;
74214;Laerm;62576;55.694;37.494;2023-04-12T08:57:17;71.35;63.71;86.30;;
74214;Laerm;62576;55.694;37.494;2023-04-12T08:59:49;68.92;62.63;74.52;;
74214;Laerm;62576;55.694;37.494;2023-04-12T09:02:20;68.55;58.48;73.92;;
74214;Laerm;62576;55.694;37.494;2023-04-12T09:04:51;68.27;60.88;73.18;;
74214;Laerm;62576;55.694;37.494;2023-04-12T09:07:22;67.12;59.99;72.28;;
74214;Laerm;62576;55.694;37.494;2023-04-12T09:09:56;68.13;61.54;72.09;;
74214;Laerm;62576;55.694;37.494;2023-04-12T09:12:27;67.77;61.28;72.78;;
74214;Laerm;62576;55.694;37.494;2023-04-12T09:15:08;66.24;59.96;73.80;;
74214;Laerm;62576;55.694;37.494;2023-04-12T09:17:41;66.48;59.52;74.72;;
74214;Laerm;62576;55.694;37.494;2023-04-12T09:20:23;66.16;60.64;72.05;;
74214;Laerm;62576;55.694;37.494;2023-04-12T09:22:54;66.10;60.58;74.79;;
74214;Laerm;62576;55.694;37.494;2023-04-12T09:25:38;67.06;59.50;81.73;;
74214;Laerm;62576;55.694;37.494;2023-04-12T09:28:18;66.75;59.44;72.81;;
74214;Laerm;62576;55.694;37.494;2023-04-12T09:30:50;66.49;60.27;71.24;;
74214;Laerm;62576;55.694;37.494;2023-04-12T09:33:23;67.46;60.70;73.16;;
74214;Laerm;62576;55.694;37.494;2023-04-12T09:36:03;66.34;58.12;71.36;;
74214;Laerm;62576;55.694;37.494;2023-04-12T09:38:33;65.66;60.66;70.48;;
74214;Laerm;62576;55.694;37.494;2023-04-12T09:41:15;65.48;57.44;71.49;;
74214;Laerm;62576;55.694;37.494;2023-04-12T09:43:46;66.54;58.35;83.86;;
74214;Laerm;62576;55.694;37.494;2023-04-12T09:46:16;65.07;58.15;70.78;;
74214;Laerm;62576;55.694;37.494;2023-04-12T09:48:53;66.57;61.13;73.28;;
74214;Laerm;62576;55.694;37.494;2023-04-12T09:51:28;65.47;59.16;71.60;;
74214;Laerm;62576;55.694;37.494;2023-04-12T09:54:01;65.71;59.66;72.52;;
74214;Laerm;62576;55.694;37.494;2023-04-12T09:56:33;66.26;58.19;71.24;;
74214;Laerm;62576;55.694;37.494;2023-04-12T09:59:05;66.27;58.98;79.72;;
74214;Laerm;62576;55.694;37.494;2023-04-12T10:01:38;65.11;58.20;70.64;;
74214;Laerm;62576;55.694;37.494;2023-04-12T10:04:10;64.05;57.65;71.73;;
74214;Laerm;62576;55.694;37.494;2023-04-12T10:06:40;65.87;59.91;73.19;;
74214;Laerm;62576;55.694;37.494;2023-04-12T10:09:11;66.07;59.82;73.98;;
74214;Laerm;62576;55.694;37.494;2023-04-12T10:11:43;65.66;56.79;71.16;;
74214;Laerm;62576;55.694;37.494;2023-04-12T10:14:15;66.14;58.87;74.89;;
74214;Laerm;62576;55.694;37.494;2023-04-12T10:16:47;66.88;60.87;73.19;;
74214;Laerm;62576;55.694;37.494;2023-04-12T10:19:19;67.33;61.93;75.86;;
74214;Laerm;62576;55.694;37.494;2023-04-12T10:21:49;65.26;59.57;70.86;;
74214;Laerm;62576;55.694;37.494;2023-04-12T10:24:20;66.72;61.98;74.68;;
74214;Laerm;62576;55.694;37.494;2023-04-12T10:26:52;67.83;63.84;73.99;;
74214;Laerm;62576;55.694;37.494;2023-04-12T10:29:24;68.05;63.31;77.45;;
74214;Laerm;62576;55.694;37.494;2023-04-12T10:31:56;66.93;62.51;76.72;;
74214;Laerm;62576;55.694;37.494;2023-04-12T10:34:28;68.21;63.19;78.66;;
74214;Laerm;62576;55.694;37.494;2023-04-12T10:36:59;66.69;61.56;73.78;;
74214;Laerm;62576;55.694;37.494;2023-04-12T10:39:35;67.22;60.76;75.21;;
74214;Laerm;62576;55.694;37.494;2023-04-12T10:42:17;67.66;61.80;79.89;;
74214;Laerm;62576;55.694;37.494;2023-04-12T10:44:47;67.12;61.52;75.93;;
74214;Laerm;62576;55.694;37.494;2023-04-12T10:50:23;65.91;58.29;71.43;;
74214;Laerm;62576;55.694;37.494;2023-04-12T10:53:22;66.48;58.59;74.48;;
74214;Laerm;62576;55.694;37.494;2023-04-12T10:55:53;64.89;58.62;71.91;;
74214;Laerm;62576;55.694;37.494;2023-04-12T10:58:56;66.13;59.14;76.20;;
74214;Laerm;62576;55.694;37.494;2023-04-12T11:01:27;66.36;60.62;73.07;;
74214;Laerm;62576;55.694;37.494;2023-04-12T11:04:05;66.81;57.98;71.88;;
74214;Laerm;62576;55.694;37.494;2023-04-12T11:06:47;66.12;59.73;73.55;;
74214;Laerm;62576;55.694;37.494;2023-04-12T11:09:19;71.99;60.38;86.84;;
74214;Laerm;62576;55.694;37.494;2023-04-12T11:11:55;65.34;58.12;75.76;;
74214;Laerm;62576;55.694;37.494;2023-04-12T11:14:28;67.41;62.38;80.01;;
74214;Laerm;62576;55.694;37.494;2023-04-12T11:17:21;66.62;61.05;75.62;;
74214;Laerm;62576;55.694;37.494;2023-04-12T11:19:57;66.09;60.20;74.41;;
74214;Laerm;62576;55.694;37.494;2023-04-12T11:22:31;66.38;61.01;75.22;;
74214;Laerm;62576;55.694;37.494;2023-04-12T11:25:02;66.72;61.08;79.75;;
74214;Laerm;62576;55.694;37.494;2023-04-12T11:27:32;65.95;59.21;72.97;;
74214;Laerm;62576;55.694;37.494;2023-04-12T11:30:06;66.03;61.00;70.28;;
74214;Laerm;62576;55.694;37.494;2023-04-12T11:32:38;66.90;61.22;77.44;;
74214;Laerm;62576;55.694;37.494;2023-04-12T11:35:09;66.81;59.69;72.77;;
74214;Laerm;62576;55.694;37.494;2023-04-12T11:37:40;67.83;61.91;76.77;;
74214;Laerm;62576;55.694;37.494;2023-04-12T11:40:10;66.95;61.93;76.67;;
74214;Laerm;62576;55.694;37.494;2023-04-12T11:42:42;66.50;59.75;72.63;;
74214;Laerm;62576;55.694;37.494;2023-04-12T11:45:18;69.45;61.65;84.64;;
74214;Laerm;62576;55.694;37.494;2023-04-12T11:47:48;67.91;61.04;79.96;;
74214;Laerm;62576;55.694;37.494;2023-04-12T11:50:27;68.75;58.59;86.35;;
74214;Laerm;62576;55.694;37.494;2023-04-12T11:53:08;64.97;58.77;71.34;;
74214;Laerm;62576;55.694;37.494;2023-04-12T11:55:39;65.96;59.36;73.19;;
74214;Laerm;62576;55.694;37.494;2023-04-12T11:58:10;66.62;61.59;75.04;;
74214;Laerm;62576;55.694;37.494;2023-04-12T12:00:40;66.42;59.09;73.32;;
74214;Laerm;62576;55.694;37.494;2023-04-12T12:03:11;66.60;58.17;76.93;;
74214;Laerm;62576;55.694;37.494;2023-04-12T12:05:41;66.25;58.76;73.87;;
74214;Laerm;62576;55.694;37.494;2023-04-12T12:08:14;65.80;59.36;71.44;;
74214;Laerm;62576;55.694;37.494;2023-04-12T12:10:44;67.01;55.54;81.96;;
74214;Laerm;62576;55.694;37.494;2023-04-12T12:13:15;66.36;58.55;71.64;;
74214;Laerm;62576;55.694;37.494;2023-04-12T12:15:45;66.58;58.47;72.18;;
74214;Laerm;62576;55.694;37.494;2023-04-12T12:18:15;66.69;57.94;74.39;;
74214;Laerm;62576;55.694;37.494;2023-04-12T12:20:48;66.86;60.61;73.45;;
74214;Laerm;62576;55.694;37.494;2023-04-12T12:23:34;66.87;59.67;73.09;;
74214;Laerm;62576;55.694;37.494;2023-04-12T12:26:05;66.25;60.05;72.36;;
74214;Laerm;62576;55.694;37.494;2023-04-12T12:28:35;66.17;59.23;71.20;;
74214;Laerm;62576;55.694;37.494;2023-04-12T12:31:08;65.47;58.35;71.01;;
74214;Laerm;62576;55.694;37.494;2023-04-12T12:33:40;67.83;60.49;72.69;;
74214;Laerm;62576;55.694;37.494;2023-04-12T12:36:10;67.14;60.98;73.87;;
74214;Laerm;62576;55.694;37.494;2023-04-12T12:38:43;67.43;60.73;72.65;;
74214;Laerm;62576;55.694;37.494;2023-04-12T12:41:14;68.43;61.30;79.11;;
74214;Laerm;62576;55.694;37.494;2023-04-12T12:43:45;66.74;60.83;71.59;;
74214;Laerm;62576;55.694;37.494;2023-04-12T12:46:16;66.96;59.97;72.50;;
74214;Laerm;62576;55.694;37.494;2023-04-12T12:48:47;66.92;60.87;74.03;;
74214;Laerm;62576;55.694;37.494;2023-04-12T12:51:17;67.03;60.59;72.54;;
74214;Laerm;62576;55.694;37.494;2023-04-12T12:53:50;68.63;60.22;77.16;;
74214;Laerm;62576;55.694;37.494;2023-04-12T12:56:21;68.17;62.22;74.03;;
74214;Laerm;62576;55.694;37.494;2023-04-12T12:58:51;67.67;60.91;73.79;;
74214;Laerm;62576;55.694;37.494;2023-04-12T13:01:21;67.05;60.71;73.03;;
74214;Laerm;62576;55.694;37.494;2023-04-12T13:03:51;68.33;58.93;77.99;;
74214;Laerm;62576;55.694;37.494;2023-04-12T13:06:21;66.42;59.49;71.90;;
74214;Laerm;62576;55.694;37.494;2023-04-12T13:08:54;67.27;62.04;74.30;;
74214;Laerm;62576;55.694;37.494;2023-04-12T13:11:24;66.70;60.91;76.40;;
74214;Laerm;62576;55.694;37.494;2023-04-12T13:13:56;66.20;60.57;73.91;;
74214;Laerm;62576;55.694;37.494;2023-04-12T13:16:25;65.98;57.55;77.90;;
74214;Laerm;62576;55.694;37.494;2023-04-12T13:18:56;66.62;59.07;78.38;;
74214;Laerm;62576;55.694;37.494;2023-04-12T13:21:25;65.89;60.06;76.11;;
74214;Laerm;62576;55.694;37.494;2023-04-12T13:23:57;65.34;58.70;74.66;;
74214;Laerm;62576;55.694;37.494;2023-04-12T13:26:30;65.32;59.69;73.30;;
74214;Laerm;62576;55.694;37.494;2023-04-12T13:29:01;65.69;62.13;74.70;;
74214;Laerm;62576;55.694;37.494;2023-04-12T13:31:32;65.91;62.12;75.22;;
74214;Laerm;62576;55.694;37.494;2023-04-12T13:34:02;64.98;61.37;69.84;;
74214;Laerm;62576;55.694;37.494;2023-04-12T13:36:32;66.00;61.54;70.46;;
74214;Laerm;62576;55.694;37.494;2023-04-12T13:39:03;65.70;61.31;70.22;;
74214;Laerm;62576;55.694;37.494;2023-04-12T13:41:34;66.80;61.08;76.20;;
74214;Laerm;62576;55.694;37.494;2023-04-12T13:44:03;66.30;59.91;73.21;;
74214;Laerm;62576;55.694;37.494;2023-04-12T13:46:34;65.09;60.69;69.18;;
74214;Laerm;62576;55.694;37.494;2023-04-12T13:49:04;66.10;61.18;80.36;;
74214;Laerm;62576;55.694;37.494;2023-04-12T13:51:34;66.71;61.20;75.65;;
74214;Laerm;62576;55.694;37.494;2023-04-12T13:54:06;67.39;61.43;76.38;;
74214;Laerm;62576;55.694;37.494;2023-04-12T13:56:36;68.44;63.18;75.55;;
74214;Laerm;62576;55.694;37.494;2023-04-12T13:59:06;66.83;60.54;77.09;;
74214;Laerm;62576;55.694;37.494;2023-04-12T14:01:36;65.56;59.58;70.69;;